Time;durP1;ratioP1;P1;durP2;ratioP2;P2;SDS_P1;SDS_P2;PMS_P1;PMS_P2;Temp;Humidity;BMP_temperature;BMP_pressure;BME280_temperature;BME280_humidity;BME280_pressure;Samples;Min_cycle;Max_cycle;Signal;HPM_P1;HPM_P2
2021/12/17 00:04:39;;;;;;;32.60;19.75;;;8.30;97.90;;;;;;6312371;22;20039;-93
2021/12/17 00:07:13;;;;;;;27.08;18.52;;;8.30;98.20;;;;;;6280904;22;20007;-92
2021/12/17 00:09:41;;;;;;;30.98;19.15;;;8.20;97.70;;;;;;6308207;22;20003;-93
2021/12/17 00:12:11;;;;;;;29.80;19.30;;;8.20;97.20;;;;;;6308014;22;20038;-92
2021/12/17 00:14:40;;;;;;;29.98;19.92;;;8.20;97.30;;;;;;6280790;22;20015;-90
2021/12/17 00:17:10;;;;;;;31.95;19.42;;;8.10;97.20;;;;;;6308265;22;20029;-92
2021/12/17 00:49:49;;;;;;;32.55;21.13;;;7.50;98.10;;;;;;6307590;22;20053;-93
2021/12/17 00:52:15;;;;;;;33.25;21.35;;;7.50;98.20;;;;;;6307665;22;20331;-92
2021/12/17 00:54:42;;;;;;;32.50;21.10;;;7.60;99.00;;;;;;6280814;22;19999;-90
2021/12/17 00:57:25;;;;;;;;;;;;;;;;;;;;;
2021/12/17 00:59:54;;;;;;;33.65;21.25;;;7.50;99.00;;;;;;6307483;22;20078;-91
2021/12/17 01:02:29;;;;;;;31.75;21.17;;;7.50;99.30;;;;;;6280171;22;20072;-89
2021/12/17 01:04:57;;;;;;;34.63;20.75;;;7.50;98.70;;;;;;6307096;22;20010;-89
2021/12/17 01:07:34;;;;;;;33.35;21.08;;;7.40;99.10;;;;;;6279935;22;20006;-91
2021/12/17 01:10:06;;;;;;;34.40;20.10;;;7.30;99.90;;;;;;6306899;22;20317;-92
2021/12/17 01:12:32;;;;;;;33.75;20.73;;;7.30;99.90;;;;;;6279965;22;20011;-91
2021/12/17 01:15:00;;;;;;;31.05;20.42;;;7.30;99.90;;;;;;6307046;22;20070;-91
2021/12/17 01:17:31;;;;;;;34.10;21.75;;;7.30;99.70;;;;;;6279326;22;20382;-92
2021/12/17 01:20:22;;;;;;;32.55;19.95;;;7.30;99.80;;;;;;6307221;22;19999;-92
2021/12/17 01:36:05;;;;;;;35.92;19.77;;;7.20;99.90;;;;;;6307929;22;20036;-91
2021/12/17 01:43:57;;;;;;;34.10;19.25;;;7.10;99.90;;;;;;6328737;22;20053;-89
2021/12/17 01:46:28;;;;;;;30.55;19.38;;;7.00;99.90;;;;;;6293108;22;20011;-90
2021/12/17 01:49:16;;;;;;;29.83;18.90;;;6.90;99.90;;;;;;6283319;22;20003;-90
2021/12/17 02:00:03;;;;;;;32.40;19.55;;;7.00;99.90;;;;;;6307046;22;20371;-88
2021/12/17 02:02:37;;;;;;;34.83;18.85;;;6.80;99.90;;;;;;6306832;22;20007;-92
2021/12/17 02:05:02;;;;;;;33.08;19.48;;;6.80;99.90;;;;;;6306849;22;19995;-93
2021/12/17 02:07:33;;;;;;;35.83;19.35;;;6.80;99.90;;;;;;6306492;22;20010;-93
2021/12/17 02:29:40;;;;;;;35.60;19.65;;;6.70;99.90;;;;;;6328112;22;20034;-89
2021/12/17 02:32:05;;;;;;;32.60;18.58;;;6.70;99.90;;;;;;6317738;22;20066;-92
2021/12/17 02:35:09;;;;;;;37.15;19.25;;;6.60;99.90;;;;;;6309822;22;20004;-91
2021/12/17 02:37:40;;;;;;;30.33;18.83;;;6.60;99.90;;;;;;6306734;22;20443;-93
2021/12/17 02:45:36;;;;;;;31.02;18.40;;;6.60;99.90;;;;;;6307141;22;20035;-91
2021/12/17 02:48:11;;;;;;;31.83;18.10;;;6.60;99.90;;;;;;6306667;22;19999;-92
2021/12/17 02:50:46;;;;;;;29.88;18.48;;;6.60;99.90;;;;;;6278812;22;20003;-93
2021/12/17 02:53:12;;;;;;;31.83;18.25;;;6.40;99.90;;;;;;6279319;22;19999;-93
2021/12/17 02:55:50;;;;;;;35.58;19.00;;;6.40;99.90;;;;;;6306115;22;20074;-92
2021/12/17 02:58:18;;;;;;;32.80;18.60;;;6.40;99.90;;;;;;6278982;22;20031;-93
2021/12/17 03:00:44;;;;;;;29.77;18.75;;;6.40;99.90;;;;;;6306673;22;20474;-91
2021/12/17 03:03:20;;;;;;;34.33;19.42;;;6.40;99.90;;;;;;6279073;22;20026;-92
2021/12/17 03:05:46;;;;;;;27.45;18.00;;;6.40;99.90;;;;;;6278922;22;20454;-92
2021/12/17 03:08:16;;;;;;;32.40;18.92;;;6.30;99.90;;;;;;6306805;22;20082;-93
2021/12/17 03:10:46;;;;;;;32.20;19.38;;;6.30;99.90;;;;;;6280707;22;19999;-91
2021/12/17 03:13:12;;;;;;;31.98;19.40;;;6.20;99.90;;;;;;6308576;22;20455;-91
2021/12/17 03:15:56;;;;;;;34.92;19.98;;;6.20;99.90;;;;;;6308397;22;20027;-91
2021/12/17 03:24:08;;;;;;;32.45;19.60;;;6.40;99.90;;;;;;6308125;22;20490;-94
2021/12/17 03:26:37;;;;;;;31.70;18.85;;;6.30;99.90;;;;;;6308367;22;19999;-92
2021/12/17 03:29:19;;;;;;;32.67;18.58;;;6.20;99.90;;;;;;6308048;22;20003;-93
2021/12/17 03:31:47;;;;;;;32.85;18.88;;;6.20;99.90;;;;;;6308458;22;19999;-92
2021/12/17 03:36:42;;;;;;;29.38;18.13;;;6.20;99.90;;;;;;6308658;22;20467;-92
2021/12/17 03:39:07;;;;;;;28.13;18.85;;;6.20;99.90;;;;;;6280837;22;20018;-94
2021/12/17 03:41:37;;;;;;;33.40;18.30;;;6.20;99.90;;;;;;6308053;22;20431;-91
2021/12/17 03:44:09;;;;;;;29.63;18.00;;;6.20;99.90;;;;;;6280718;22;20019;-91
2021/12/17 03:46:40;;;;;;;30.73;19.00;;;6.10;99.90;;;;;;6308019;22;20125;-92
2021/12/17 03:49:06;;;;;;;28.55;17.55;;;6.10;99.90;;;;;;6308619;22;19999;-94
2021/12/17 03:51:36;;;;;;;30.10;18.05;;;6.00;99.90;;;;;;6280697;22;20022;-94
2021/12/17 03:54:02;;;;;;;27.27;17.83;;;6.00;99.90;;;;;;6280589;22;20386;-93
2021/12/17 03:56:30;;;;;;;30.63;18.02;;;6.00;99.90;;;;;;6308390;22;20006;-92
2021/12/17 03:58:57;;;;;;;31.60;18.52;;;6.00;99.90;;;;;;6308359;22;20004;-91
2021/12/17 04:01:26;;;;;;;33.45;18.15;;;5.80;99.90;;;;;;6280942;22;20367;-89
2021/12/17 04:03:52;;;;;;;33.15;18.50;;;5.80;99.90;;;;;;6307775;22;20011;-92
2021/12/17 04:06:18;;;;;;;26.65;18.38;;;5.80;99.90;;;;;;6281004;22;20026;-92
2021/12/17 04:08:46;;;;;;;31.40;18.27;;;5.80;99.90;;;;;;6309359;22;20014;-90
2021/12/17 04:11:17;;;;;;;27.63;18.60;;;5.80;99.90;;;;;;6321497;22;20026;-89
2021/12/17 04:13:50;;;;;;;33.47;18.17;;;5.80;99.90;;;;;;6328845;22;19995;-91
2021/12/17 04:16:21;;;;;;;31.85;18.30;;;5.80;99.90;;;;;;6330904;22;20066;-89
2021/12/17 04:18:47;;;;;;;27.45;17.63;;;5.90;99.90;;;;;;6292401;22;20394;-92
2021/12/17 04:21:15;;;;;;;28.80;18.27;;;5.90;99.90;;;;;;6284751;22;20003;-91
2021/12/17 04:23:45;;;;;;;29.77;18.60;;;5.90;99.90;;;;;;6307814;22;20371;-91
2021/12/17 04:26:22;;;;;;;;;;;;;;;;;;;;;
2021/12/17 04:28:51;;;;;;;30.10;16.85;;;5.80;99.90;;;;;;6307742;22;20390;-91
2021/12/17 04:38:59;;;;;;;;;;;;;;;;;;;;;
2021/12/17 04:57:46;;;;;;;31.80;18.60;;;5.60;99.90;;;;;;5902495;24;20036;-90
2021/12/17 05:01:19;;;;;;;;;;;;;;;;;;;;;
2021/12/17 05:04:18;;;;;;;;;;;;;;;;;;;;;
2021/12/17 05:07:24;;;;;;;;;;;;;;;;;;;;;
2021/12/17 05:10:40;;;;;;;;;;;;;;;;;;;;;
2021/12/17 05:20:39;;;;;;;;;;;;;;;;;;;;;
2021/12/17 05:26:53;;;;;;;;;;;;;;;;;;;;;
2021/12/17 05:33:56;;;;;;;;;;;;;;;;;;;;;
2021/12/17 05:49:24;;;;;;;;;;;;;;;;;;;;;
2021/12/17 05:52:18;;;;;;;30.58;18.50;;;5.60;99.90;;;;;;6038125;23;20079;-91
2021/12/17 05:55:13;;;;;;;;;;;;;;;;;;;;;
2021/12/17 06:01:11;;;;;;;30.55;18.27;;;5.60;99.90;;;;;;5925906;24;20012;-89
2021/12/17 06:04:27;;;;;;;;;;;;;;;;;;;;;
2021/12/17 06:13:38;;;;;;;30.15;18.63;;;5.60;99.90;;;;;;6037386;23;20371;-91
2021/12/17 06:16:34;;;;;;;;;;;;;;;;;;;;;
2021/12/17 06:25:58;;;;;;;30.83;18.88;;;5.50;99.90;;;;;;6217438;23;20013;-91
2021/12/17 06:28:54;;;;;;;;;;;;;;;;;;;;;
2021/12/17 06:31:46;;;;;;;31.92;19.08;;;5.40;99.90;;;;;;6020096;23;20079;-89
2021/12/17 06:34:42;;;;;;;32.33;18.23;;;5.30;99.90;;;;;;6096397;23;20013;-92
2021/12/17 06:37:55;;;;;;;31.83;18.15;;;5.20;99.90;;;;;;6150994;23;20415;-90
2021/12/17 06:40:35;;;;;;;;;;;;;;;;;;;;;
2021/12/17 06:46:46;;;;;;;34.83;18.95;;;5.00;99.90;;;;;;6246302;22;20042;-88
2021/12/17 07:06:10;;;;;;;31.85;18.75;;;4.80;99.90;;;;;;6121429;23;20017;-88
2021/12/17 07:11:48;;;;;;;36.15;18.60;;;4.80;99.90;;;;;;6308013;22;20018;-89
2021/12/17 07:17:42;;;;;;;32.83;18.80;;;5.00;99.90;;;;;;6307477;22;20038;-90
2021/12/17 07:36:18;;;;;;;39.30;22.50;;;5.40;99.90;;;;;;6322971;22;19991;-89
2021/12/17 07:38:49;;;;;;;36.00;21.02;;;5.40;99.90;;;;;;6225637;23;20008;-90
2021/12/17 07:41:23;;;;;;;39.97;22.23;;;5.40;99.90;;;;;;6194863;23;20015;-89
2021/12/17 07:43:59;;;;;;;37.55;21.38;;;5.50;99.90;;;;;;6221193;23;20017;-89
2021/12/17 07:46:37;;;;;;;43.17;22.38;;;5.40;99.90;;;;;;6224242;23;20004;-88
2021/12/17 07:49:05;;;;;;;37.78;21.13;;;5.60;99.90;;;;;;6197695;23;20540;-88
2021/12/17 07:51:54;;;;;;;38.35;21.88;;;5.50;99.90;;;;;;6195889;23;20039;-89
2021/12/17 07:54:20;;;;;;;40.58;22.02;;;5.50;99.90;;;;;;6191419;23;20076;-89
2021/12/17 07:56:46;;;;;;;37.58;21.13;;;5.40;99.90;;;;;;6189586;23;20120;-87
2021/12/17 07:59:13;;;;;;;42.13;22.35;;;5.50;99.90;;;;;;6186924;23;20001;-90
2021/12/17 08:02:08;;;;;;;36.03;20.88;;;5.50;99.90;;;;;;6188043;23;20451;-91
2021/12/17 08:04:34;;;;;;;34.60;20.75;;;5.40;99.90;;;;;;6165988;23;20017;-87
2021/12/17 08:06:59;;;;;;;42.72;22.55;;;5.40;99.90;;;;;;6171853;23;20029;-92
2021/12/17 08:09:28;;;;;;;44.47;22.50;;;5.40;99.90;;;;;;6227601;23;20004;-89
2021/12/17 08:11:57;;;;;;;36.67;21.98;;;5.40;99.90;;;;;;6258115;23;20036;-90
2021/12/17 08:14:26;;;;;;;40.35;22.23;;;5.40;99.90;;;;;;6256048;23;20028;-90
2021/12/17 08:23:51;;;;;;;42.40;23.42;;;5.50;99.90;;;;;;6251363;23;20122;-92
2021/12/17 08:26:08;;;;;;;43.58;22.60;;;5.40;99.90;;;;;;6297123;22;20010;-92
2021/12/17 08:29:12;;;;;;;41.42;23.17;;;5.40;99.90;;;;;;6277532;22;20019;-93
2021/12/17 08:31:38;;;;;;;42.47;22.52;;;5.40;99.90;;;;;;6307148;22;20004;-91
2021/12/17 08:34:05;;;;;;;48.95;23.42;;;5.70;99.90;;;;;;6306134;22;20124;-90
2021/12/17 08:36:31;;;;;;;40.95;23.48;;;5.50;99.90;;;;;;6278946;22;20031;-90
2021/12/17 08:38:57;;;;;;;38.78;23.08;;;5.60;99.90;;;;;;6306102;22;19999;-88
2021/12/17 08:41:23;;;;;;;42.35;23.10;;;5.80;99.90;;;;;;6305908;22;20390;-90
2021/12/17 08:43:51;;;;;;;40.35;23.05;;;5.70;99.90;;;;;;6305826;22;20007;-89
2021/12/17 08:46:19;;;;;;;42.45;23.67;;;5.80;99.90;;;;;;6306473;22;20078;-91
2021/12/17 08:49:05;;;;;;;37.90;22.40;;;5.80;99.90;;;;;;6306405;22;20056;-91
2021/12/17 08:51:34;;;;;;;43.67;23.20;;;5.90;99.90;;;;;;6279043;22;20093;-92
2021/12/17 08:54:00;;;;;;;40.80;23.80;;;6.00;99.90;;;;;;6278640;22;20007;-94
2021/12/17 08:56:38;;;;;;;42.75;23.17;;;6.10;99.90;;;;;;6306007;22;20006;-91
2021/12/17 08:59:05;;;;;;;41.55;22.48;;;6.10;99.90;;;;;;6278629;22;20031;-91
2021/12/17 09:01:31;;;;;;;45.35;23.40;;;6.20;99.90;;;;;;6306043;22;20000;-89
2021/12/17 09:03:57;;;;;;;41.28;22.70;;;6.10;99.90;;;;;;6305851;22;20011;-91
2021/12/17 09:06:26;;;;;;;40.80;23.55;;;6.20;99.90;;;;;;6306262;22;20078;-92
2021/12/17 09:09:00;;;;;;;;;;;6.20;99.90;;;;;;6306471;22;20078;-91
2021/12/17 09:11:28;;;;;;;41.63;23.17;;;6.20;99.90;;;;;;6277700;22;19914;-90
2021/12/17 09:14:05;;;;;;;44.08;24.25;;;6.30;99.90;;;;;;6307780;22;20000;-90
2021/12/17 09:16:34;;;;;;;47.35;23.95;;;6.30;99.90;;;;;;6292523;22;20014;-89
2021/12/17 09:19:00;;;;;;;42.10;23.35;;;6.30;99.90;;;;;;6321206;22;19999;-88
2021/12/17 09:21:26;;;;;;;48.63;25.48;;;6.40;99.90;;;;;;6294988;22;20053;-89
2021/12/17 09:23:52;;;;;;;41.80;23.90;;;6.40;99.90;;;;;;6310779;22;20007;-90
2021/12/17 09:26:18;;;;;;;48.53;24.83;;;6.50;99.90;;;;;;6307967;22;20443;-91
2021/12/17 09:28:44;;;;;;;48.10;24.88;;;6.60;99.90;;;;;;6306929;22;20011;-91
2021/12/17 09:31:13;;;;;;;45.45;24.23;;;6.60;99.90;;;;;;6279107;22;20006;-93
2021/12/17 09:33:46;;;;;;;41.53;23.33;;;6.60;99.90;;;;;;6306857;22;19999;-92
2021/12/17 09:36:12;;;;;;;44.47;24.10;;;6.70;99.90;;;;;;6307293;22;19995;-92
2021/12/17 09:38:38;;;;;;;44.17;24.98;;;6.80;99.90;;;;;;6306712;22;20000;-92
2021/12/17 09:41:05;;;;;;;45.08;24.92;;;6.80;99.90;;;;;;6306478;22;20011;-91
2021/12/17 09:43:36;;;;;;;43.95;25.48;;;6.80;99.90;;;;;;6306231;22;20436;-90
2021/12/17 09:46:06;;;;;;;41.75;24.33;;;6.80;99.90;;;;;;6306674;22;20000;-89
2021/12/17 09:48:34;;;;;;;43.40;25.17;;;7.00;99.90;;;;;;6305360;22;20394;-89
2021/12/17 09:51:03;;;;;;;43.95;23.95;;;7.00;99.90;;;;;;6305393;22;19999;-91
2021/12/17 09:53:29;;;;;;;41.42;23.92;;;7.00;99.90;;;;;;6306350;22;20003;-90
2021/12/17 09:55:55;;;;;;;46.83;24.15;;;7.00;99.90;;;;;;6278576;22;20082;-91
2021/12/17 09:58:20;;;;;;;46.05;25.02;;;7.10;99.90;;;;;;6278379;22;20053;-91
2021/12/17 10:00:46;;;;;;;42.22;24.45;;;7.20;99.90;;;;;;6307885;22;20070;-92
2021/12/17 10:03:12;;;;;;;45.72;25.50;;;7.30;99.90;;;;;;6288776;22;20077;-90
2021/12/17 10:05:39;;;;;;;41.33;24.95;;;7.30;99.90;;;;;;6319349;22;20003;-89
2021/12/17 10:08:10;;;;;;;48.17;24.73;;;7.30;99.90;;;;;;6297147;22;20003;-88
2021/12/17 10:10:58;;;;;;;43.13;24.02;;;7.30;99.90;;;;;;6312618;22;20033;-92
2021/12/17 10:13:34;;;;;;;41.10;23.75;;;7.40;99.90;;;;;;6307036;22;20076;-91
2021/12/17 10:16:08;;;;;;;43.92;24.23;;;7.50;99.90;;;;;;6306044;22;20000;-90
2021/12/17 10:18:41;;;;;;;43.72;24.33;;;7.60;99.90;;;;;;6278933;22;20086;-90
2021/12/17 10:21:22;;;;;;;48.13;25.65;;;7.70;99.90;;;;;;6306016;22;20125;-91
2021/12/17 10:23:50;;;;;;;44.20;25.48;;;7.80;99.90;;;;;;6279563;22;20011;-89
2021/12/17 10:26:18;;;;;;;40.78;23.58;;;7.90;99.90;;;;;;6279421;22;20144;-91
2021/12/17 10:28:57;;;;;;;41.47;23.70;;;8.00;99.90;;;;;;6279124;22;20007;-91
2021/12/17 10:31:24;;;;;;;43.95;22.77;;;8.10;99.90;;;;;;6305927;22;20328;-89
2021/12/17 10:33:52;;;;;;;44.92;24.02;;;8.20;99.90;;;;;;6278403;22;20014;-90
2021/12/17 10:36:30;;;;;;;49.75;24.30;;;8.20;99.90;;;;;;6306674;22;20006;-90
2021/12/17 10:38:55;;;;;;;42.70;23.88;;;8.40;99.90;;;;;;6306143;22;20007;-91
2021/12/17 10:41:26;;;;;;;46.58;24.77;;;8.40;99.90;;;;;;6305978;22;19999;-91
2021/12/17 10:43:58;;;;;;;41.63;23.65;;;8.50;99.90;;;;;;6306024;22;20008;-88
2021/12/17 10:46:27;;;;;;;43.92;24.10;;;8.50;99.90;;;;;;6278493;22;20003;-91
2021/12/17 10:51:45;;;;;;;44.97;25.40;;;8.70;99.90;;;;;;6306094;22;20000;-88
2021/12/17 10:54:15;;;;;;;46.00;24.90;;;8.70;99.90;;;;;;6305796;22;20614;-91
2021/12/17 10:56:49;;;;;;;42.75;23.92;;;8.80;99.90;;;;;;6306297;22;20030;-89
2021/12/17 10:59:21;;;;;;;44.30;23.73;;;8.70;99.90;;;;;;6306319;22;20086;-89
2021/12/17 11:02:02;;;;;;;40.60;23.73;;;8.80;99.90;;;;;;6279199;22;20003;-92
2021/12/17 11:04:30;;;;;;;45.00;24.90;;;8.80;99.90;;;;;;6306076;22;20529;-89
2021/12/17 11:07:09;;;;;;;43.65;23.30;;;8.80;99.90;;;;;;6305748;22;19995;-92
2021/12/17 11:09:53;;;;;;;42.05;23.05;;;8.90;99.90;;;;;;6306062;22;20014;-89
2021/12/17 11:12:28;;;;;;;43.95;23.83;;;8.90;99.90;;;;;;6306064;22;20011;-91
2021/12/17 11:15:26;;;;;;;41.20;22.27;;;8.90;99.90;;;;;;6305910;22;20007;-92
2021/12/17 11:17:56;;;;;;;38.85;21.48;;;9.00;99.90;;;;;;6306328;22;20093;-87
2021/12/17 11:20:36;;;;;;;39.38;22.88;;;9.10;99.90;;;;;;6278882;22;20321;-89
2021/12/17 11:23:07;;;;;;;39.88;22.70;;;9.00;99.90;;;;;;6305981;22;20011;-91
2021/12/17 11:25:34;;;;;;;39.72;22.48;;;9.00;99.90;;;;;;6278568;22;19999;-91
2021/12/17 11:28:01;;;;;;;43.40;22.98;;;9.00;99.90;;;;;;6279027;22;20435;-89
2021/12/17 11:30:30;;;;;;;40.67;22.60;;;9.00;99.90;;;;;;6306413;22;20002;-90
2021/12/17 11:33:01;;;;;;;40.03;22.92;;;9.10;99.90;;;;;;6307778;22;20021;-91
2021/12/17 11:35:28;;;;;;;43.75;23.10;;;9.00;99.90;;;;;;6307824;22;20003;-92
2021/12/17 11:38:06;;;;;;;40.53;22.67;;;9.00;99.90;;;;;;6280122;22;19999;-90
2021/12/17 11:40:40;;;;;;;37.35;23.15;;;9.10;99.90;;;;;;6307759;22;19999;-90
2021/12/17 11:43:37;;;;;;;43.53;25.83;;;9.10;99.90;;;;;;6308411;22;20003;-91
2021/12/17 11:46:12;;;;;;;39.53;23.08;;;9.20;99.90;;;;;;6282156;22;20003;-91
2021/12/17 11:48:38;;;;;;;42.42;24.17;;;9.20;99.90;;;;;;6321364;22;19995;-90
2021/12/17 11:51:10;;;;;;;47.72;22.98;;;9.20;99.90;;;;;;6293471;22;20521;-90
2021/12/17 11:53:58;;;;;;;40.45;23.02;;;9.20;99.90;;;;;;6319087;22;20003;-91
2021/12/17 11:56:34;;;;;;;38.30;22.73;;;9.10;99.90;;;;;;6308061;22;20146;-86
2021/12/17 11:59:02;;;;;;;38.42;23.25;;;9.00;99.90;;;;;;6307299;22;20027;-91
2021/12/17 12:01:48;;;;;;;44.33;24.05;;;9.20;99.90;;;;;;6307197;22;19999;-91
2021/12/17 12:04:32;;;;;;;39.45;22.67;;;9.20;99.90;;;;;;6307343;22;20060;-89
2021/12/17 12:07:05;;;;;;;40.80;22.95;;;9.20;99.90;;;;;;6307172;22;20068;-90
2021/12/17 12:09:55;;;;;;;36.58;22.13;;;9.10;99.90;;;;;;6307274;22;20026;-91
2021/12/17 12:12:21;;;;;;;38.97;23.00;;;9.10;99.90;;;;;;6307773;22;20061;-91
2021/12/17 12:14:47;;;;;;;42.42;23.25;;;9.20;99.90;;;;;;6307066;22;20003;-90
2021/12/17 12:17:13;;;;;;;41.35;22.20;;;9.10;99.90;;;;;;6307279;22;20501;-90
2021/12/17 12:19:49;;;;;;;43.28;23.83;;;9.10;99.90;;;;;;6307217;22;19999;-91
2021/12/17 12:22:29;;;;;;;38.13;23.30;;;9.20;99.90;;;;;;6307008;22;20007;-89
2021/12/17 12:25:30;;;;;;;38.92;22.95;;;9.30;99.90;;;;;;6307558;22;20050;-89
2021/12/17 12:27:56;;;;;;;38.55;22.35;;;9.30;99.90;;;;;;6307462;22;20042;-87
2021/12/17 12:30:39;;;;;;;36.85;22.33;;;9.10;99.90;;;;;;6279912;22;20004;-89
2021/12/17 12:33:09;;;;;;;37.28;22.55;;;8.90;99.90;;;;;;6307570;22;20087;-88
2021/12/17 12:35:35;;;;;;;40.22;22.60;;;8.90;99.90;;;;;;6309626;22;20004;-90
2021/12/17 12:38:19;;;;;;;34.95;21.98;;;8.90;99.90;;;;;;6288590;22;20079;-89
2021/12/17 12:40:54;;;;;;;38.53;21.38;;;8.90;99.90;;;;;;6322206;22;20007;-87
2021/12/17 12:43:30;;;;;;;38.90;21.00;;;8.90;99.90;;;;;;6321582;22;20027;-86
2021/12/17 12:45:56;;;;;;;41.33;22.67;;;8.80;99.90;;;;;;6309039;22;20006;-87
2021/12/17 12:48:33;;;;;;;33.25;20.70;;;8.80;99.90;;;;;;6306995;22;20083;-88
2021/12/17 12:51:22;;;;;;;35.45;21.95;;;8.70;99.90;;;;;;6306618;22;20014;-90
2021/12/17 12:54:04;;;;;;;40.15;20.58;;;8.80;99.90;;;;;;6279315;22;20060;-90
2021/12/17 12:56:30;;;;;;;36.80;21.63;;;8.70;99.90;;;;;;6279522;22;20014;-89
2021/12/17 12:58:56;;;;;;;38.10;21.83;;;8.70;99.90;;;;;;6279797;22;20412;-90
2021/12/17 13:01:23;;;;;;;36.92;22.17;;;8.60;99.90;;;;;;6306991;22;20011;-88
2021/12/17 13:03:49;;;;;;;39.28;21.73;;;8.60;99.90;;;;;;6279484;22;20017;-92
2021/12/17 13:06:17;;;;;;;38.95;21.48;;;8.60;99.90;;;;;;6307004;22;20451;-90
2021/12/17 13:08:51;;;;;;;37.17;20.85;;;8.60;99.90;;;;;;6307744;22;19999;-92
2021/12/17 13:11:18;;;;;;;37.42;20.83;;;8.80;99.90;;;;;;6306842;22;20015;-91
2021/12/17 13:13:51;;;;;;;36.88;20.40;;;8.70;99.90;;;;;;6279453;22;20003;-89
2021/12/17 13:16:23;;;;;;;34.60;19.48;;;8.70;99.90;;;;;;6306527;22;20000;-91
2021/12/17 13:21:59;;;;;;;34.83;20.15;;;8.70;99.90;;;;;;6306505;22;20013;-91
2021/12/17 13:24:31;;;;;;;37.67;19.92;;;8.60;99.90;;;;;;6279247;22;20068;-92
2021/12/17 13:27:09;;;;;;;37.83;19.50;;;8.60;99.90;;;;;;6306748;22;20005;-90
2021/12/17 13:29:38;;;;;;;35.75;19.25;;;8.70;99.90;;;;;;6306667;22;20010;-90
2021/12/17 13:32:12;;;;;;;35.40;19.63;;;8.70;99.90;;;;;;6306342;22;19996;-90
2021/12/17 13:34:42;;;;;;;37.30;19.60;;;8.70;99.90;;;;;;6306380;22;20367;-92
2021/12/17 13:37:14;;;;;;;33.30;18.27;;;8.70;99.90;;;;;;6306255;22;20445;-91
2021/12/17 13:39:53;;;;;;;34.13;18.35;;;8.70;99.90;;;;;;6306442;22;20006;-90
2021/12/17 13:42:26;;;;;;;37.20;18.40;;;8.80;99.90;;;;;;6278443;22;20394;-88
2021/12/17 13:45:00;;;;;;;37.40;19.45;;;8.80;99.90;;;;;;6306327;22;20008;-92
2021/12/17 13:47:34;;;;;;;33.72;19.20;;;8.70;99.90;;;;;;6307254;22;19999;-92
2021/12/17 13:50:00;;;;;;;36.55;19.25;;;8.70;99.90;;;;;;6306677;22;20455;-88
2021/12/17 13:52:29;;;;;;;35.60;18.75;;;8.70;99.90;;;;;;6306754;22;19995;-91
2021/12/17 13:54:56;;;;;;;46.03;19.95;;;8.80;99.90;;;;;;6306123;22;20200;-90
2021/12/17 13:57:25;;;;;;;34.70;18.75;;;8.80;99.90;;;;;;6306286;22;20003;-91
2021/12/17 13:59:52;;;;;;;37.08;18.88;;;8.70;99.90;;;;;;6279188;22;20091;-89
2021/12/17 14:02:21;;;;;;;39.90;19.52;;;8.60;99.90;;;;;;6306558;22;20088;-93
2021/12/17 14:05:08;;;;;;;38.25;19.15;;;8.60;99.90;;;;;;6306138;22;20169;-91
2021/12/17 14:07:37;;;;;;;42.28;19.58;;;8.50;99.90;;;;;;6279425;22;20332;-92
2021/12/17 14:10:10;;;;;;;38.20;19.90;;;8.60;99.90;;;;;;6278890;22;20000;-91
2021/12/17 14:12:40;;;;;;;36.20;18.30;;;8.70;99.90;;;;;;6306057;22;20037;-89
2021/12/17 14:15:26;;;;;;;37.58;18.80;;;8.60;99.90;;;;;;6306282;22;20343;-92
2021/12/17 14:17:58;;;;;;;34.65;17.67;;;8.50;99.90;;;;;;6306274;22;20003;-90
2021/12/17 14:20:26;;;;;;;35.25;17.50;;;8.50;99.90;;;;;;6305919;22;20028;-91
2021/12/17 14:23:02;;;;;;;34.05;16.35;;;8.40;99.90;;;;;;6305995;22;20008;-93
2021/12/17 14:25:39;;;;;;;36.22;18.30;;;8.50;99.90;;;;;;6306576;22;19999;-93
2021/12/17 14:28:08;;;;;;;34.28;17.92;;;8.50;99.90;;;;;;6306139;22;19999;-91
2021/12/17 14:30:36;;;;;;;34.00;18.13;;;8.50;99.90;;;;;;6306005;22;20003;-91
2021/12/17 14:33:14;;;;;;;31.35;16.50;;;8.60;99.90;;;;;;6306361;22;19995;-87
2021/12/17 14:35:58;;;;;;;32.22;17.23;;;8.70;99.90;;;;;;6305140;22;19999;-92
2021/12/17 14:38:48;;;;;;;32.13;17.15;;;8.50;99.90;;;;;;6306136;22;20002;-89
2021/12/17 14:41:30;;;;;;;36.05;16.98;;;8.50;99.90;;;;;;6305648;22;20003;-90
2021/12/17 14:44:09;;;;;;;37.95;17.60;;;8.60;99.90;;;;;;6304897;22;20090;-89
2021/12/17 14:47:04;;;;;;;37.00;18.75;;;8.60;99.90;;;;;;6306035;22;20070;-90
2021/12/17 15:01:09;;;;;;;36.17;17.17;;;8.50;99.90;;;;;;6305526;22;20497;-90
2021/12/17 15:03:41;;;;;;;35.10;17.42;;;8.60;99.90;;;;;;6294136;22;20607;-90
2021/12/17 15:06:38;;;;;;;35.20;17.00;;;8.70;99.90;;;;;;6308893;22;19996;-88
2021/12/17 15:09:04;;;;;;;33.60;16.25;;;8.70;99.90;;;;;;6315353;22;20424;-87
2021/12/17 15:11:37;;;;;;;35.55;16.67;;;8.50;99.90;;;;;;6314302;22;20010;-89
2021/12/17 15:14:03;;;;;;;30.25;15.25;;;8.50;99.90;;;;;;6312220;22;20025;-91
2021/12/17 15:16:29;;;;;;;32.47;16.83;;;8.50;99.90;;;;;;6307682;22;20037;-88
2021/12/17 15:18:55;;;;;;;35.58;17.02;;;8.40;99.90;;;;;;6279600;22;20076;-89
2021/12/17 15:21:20;;;;;;;33.78;17.33;;;8.30;99.90;;;;;;6307071;22;19995;-90
2021/12/17 15:23:46;;;;;;;30.60;15.38;;;8.40;99.90;;;;;;6279480;22;20015;-88
2021/12/17 15:26:12;;;;;;;31.73;15.85;;;8.50;99.90;;;;;;6306859;22;20003;-88
2021/12/17 15:28:38;;;;;;;31.75;16.15;;;8.50;99.90;;;;;;6306711;22;20027;-88
2021/12/17 15:31:06;;;;;;;33.05;15.73;;;8.50;99.90;;;;;;6307000;22;19999;-91
2021/12/17 15:33:33;;;;;;;31.95;16.08;;;8.50;99.90;;;;;;6306926;22;20290;-87
2021/12/17 15:35:59;;;;;;;34.08;15.88;;;8.60;99.90;;;;;;6306741;22;19995;-88
2021/12/17 15:38:33;;;;;;;32.22;15.73;;;8.50;99.90;;;;;;6279288;22;20011;-91
2021/12/17 15:40:58;;;;;;;34.45;16.88;;;8.60;99.90;;;;;;6306567;22;19995;-89
2021/12/17 15:43:24;;;;;;;34.42;17.23;;;8.50;99.90;;;;;;6279333;22;20073;-90
2021/12/17 15:45:52;;;;;;;39.38;17.80;;;8.60;99.90;;;;;;6306746;22;20006;-93
2021/12/17 15:48:19;;;;;;;39.67;17.38;;;8.80;99.90;;;;;;6306844;22;20004;-93
2021/12/17 15:50:45;;;;;;;34.13;17.05;;;8.80;99.90;;;;;;6306826;22;20003;-89
2021/12/17 15:53:14;;;;;;;34.83;17.17;;;8.70;99.90;;;;;;6307094;22;20006;-90
2021/12/17 15:55:40;;;;;;;38.17;18.08;;;8.70;99.90;;;;;;6279634;22;20316;-91
2021/12/17 15:58:09;;;;;;;34.03;17.65;;;8.60;99.90;;;;;;6279339;22;19999;-90
2021/12/17 16:00:36;;;;;;;34.58;17.70;;;8.60;99.90;;;;;;6306535;22;20027;-87
2021/12/17 16:03:03;;;;;;;35.45;18.52;;;8.70;99.90;;;;;;6305868;22;20011;-88
2021/12/17 16:05:33;;;;;;;36.22;18.50;;;8.70;99.90;;;;;;6278879;22;20097;-89
2021/12/17 16:07:59;;;;;;;36.80;18.77;;;8.70;99.90;;;;;;6306235;22;20002;-89
2021/12/17 16:21:30;;;;;;;58.53;25.63;;;8.60;99.90;;;;;;6301993;22;20007;-87
2021/12/17 16:23:57;;;;;;;41.13;20.27;;;8.60;99.90;;;;;;6305853;22;20405;-89
2021/12/17 16:26:23;;;;;;;39.53;20.00;;;8.60;99.90;;;;;;6306984;22;20030;-89
2021/12/17 16:28:50;;;;;;;38.90;20.20;;;8.70;99.90;;;;;;6306497;22;20079;-89
2021/12/17 16:31:22;;;;;;;40.35;19.00;;;8.70;99.90;;;;;;6306663;22;20064;-89
2021/12/17 16:33:51;;;;;;;40.75;20.73;;;8.70;99.90;;;;;;6306267;22;19999;-90
2021/12/17 16:36:16;;;;;;;38.72;20.10;;;8.50;99.90;;;;;;6278323;22;20447;-87
2021/12/17 16:38:42;;;;;;;41.67;20.05;;;8.50;99.90;;;;;;6306228;22;20026;-87
2021/12/17 16:41:09;;;;;;;39.97;19.23;;;8.40;99.90;;;;;;6279349;22;20011;-90
2021/12/17 16:43:43;;;;;;;42.08;20.20;;;8.40;99.90;;;;;;6278901;22;20072;-89
2021/12/17 16:48:52;;;;;;;43.17;20.25;;;8.40;99.90;;;;;;6312151;22;20010;-88
2021/12/17 16:51:18;;;;;;;42.72;21.50;;;8.50;99.90;;;;;;6310514;22;19999;-88
2021/12/17 16:53:45;;;;;;;43.25;21.98;;;8.60;99.90;;;;;;6312415;22;20067;-91
2021/12/17 16:56:38;;;;;;;42.30;19.08;;;8.40;99.90;;;;;;6323420;22;20469;-90
2021/12/17 16:59:04;;;;;;;40.88;19.63;;;8.50;99.90;;;;;;6322309;22;19999;-89
2021/12/17 17:01:52;;;;;;;39.17;19.50;;;8.40;99.90;;;;;;6314701;22;20010;-94
2021/12/17 17:08:06;;;;;;;41.65;19.30;;;8.50;99.90;;;;;;6285470;22;20328;-90
2021/12/17 17:10:38;;;;;;;41.78;18.55;;;8.50;99.90;;;;;;6278673;22;20080;-92
2021/12/17 17:13:31;;;;;;;43.58;20.23;;;8.50;99.90;;;;;;6278084;22;20110;-92
2021/12/17 17:16:20;;;;;;;;;;;;;;;;;;;;;
2021/12/17 17:19:07;;;;;;;41.20;19.10;;;8.40;99.90;;;;;;6306138;22;20063;-92
2021/12/17 17:22:05;;;;;;;42.10;20.20;;;8.40;99.90;;;;;;6278722;22;20003;-92
2021/12/17 17:24:36;;;;;;;40.10;19.63;;;8.50;99.90;;;;;;6278185;22;20039;-90
2021/12/17 17:27:37;;;;;;;;;;;;;;;;;;;;;
2021/12/17 17:43:52;;;;;;;37.55;19.08;;;8.70;99.90;;;;;;6008398;23;20062;-91
2021/12/17 17:46:19;;;;;;;40.55;21.15;;;8.70;99.90;;;;;;6050693;23;20046;-90
2021/12/17 17:49:56;;;;;;;;;;;;;;;;;;;;;
2021/12/17 17:59:42;;;;;;;;;;;;;;;;;;;;;
2021/12/17 18:05:14;;;;;;;46.30;22.70;;;8.50;99.90;;;;;;6242276;22;20011;-93